Time,TemperatureF,DewpointF,PressureIn,WindDirection,WindDirectionDegrees,WindSpeedMPH,WindSpeedGustMPH,Humidity,HourlyPrecipIn,Conditions,Clouds,dailyrainin,SoftwareType,DateUTC
2013-02-11 00:13:00,46.6,46.1,29.99,South,180,7.8,-999.0,98,-99.99,,,0.00,Acu-Link.com,2013-02-11 05:13:00,
2013-02-11 00:29:00,46.9,46.4,30.00,SE,135,4.7,-999.0,98,-99.99,,,0.00,Acu-Link.com,2013-02-11 05:29:00,
2013-02-11 00:44:00,47.3,46.8,29.99,ESE,112,4.7,-999.0,98,-99.99,,,0.00,Acu-Link.com,2013-02-11 05:44:00,
2013-02-11 00:59:00,47.5,47.0,29.99,SW,225,7.8,-999.0,98,-99.99,,,0.00,Acu-Link.com,2013-02-11 05:59:00,
2013-02-11 01:14:00,48.0,47.5,29.98,SSE,157,4.2,-999.0,98,-99.99,,,0.00,Acu-Link.com,2013-02-11 06:14:00,
2013-02-11 01:30:00,48.6,48.1,29.96,SSE,157,3.2,-999.0,98,-99.99,,,0.00,Acu-Link.com,2013-02-11 06:30:00,
2013-02-11 01:45:00,48.6,48.1,29.97,SSE,157,4.7,-999.0,98,-99.99,,,0.00,Acu-Link.com,2013-02-11 06:45:00,
2013-02-11 02:00:00,48.6,48.1,29.97,South,180,2.2,-999.0,98,-99.99,,,0.00,Acu-Link.com,2013-02-11 07:00:00,
2013-02-11 02:16:00,48.7,48.2,29.97,SE,135,2.7,-999.0,98,-99.99,,,0.00,Acu-Link.com,2013-02-11 07:16:00,
2013-02-11 02:31:00,48.6,48.1,29.95,SSE,157,0.0,-999.0,98,-99.99,,,0.01,Acu-Link.com,2013-02-11 07:31:00,
2013-02-11 02:46:00,48.7,48.2,29.94,SSE,157,5.3,-999.0,98,-99.99,,,0.02,Acu-Link.com,2013-02-11 07:46:00,
2013-02-11 03:02:00,49.3,48.8,29.92,SSE,157,3.7,-999.0,98,-99.99,,,0.03,Acu-Link.com,2013-02-11 08:02:00,
2013-02-11 03:17:00,49.5,49.0,29.92,SSW,202,5.8,-999.0,98,-99.99,,,0.03,Acu-Link.com,2013-02-11 08:17:00,
2013-02-11 03:32:00,49.6,49.1,29.93,West,270,3.7,-999.0,98,-99.99,,,0.03,Acu-Link.com,2013-02-11 08:32:00,
2013-02-11 03:48:00,49.5,49.0,29.93,West,270,3.2,-999.0,98,-99.99,,,0.03,Acu-Link.com,2013-02-11 08:48:00,
2013-02-11 04:16:00,49.3,48.8,29.92,West,270,0.0,-999.0,98,-99.99,,,0.04,Acu-Link.com,2013-02-11 09:16:00,
2013-02-11 04:32:00,49.3,48.8,29.90,WNW,292,4.7,-999.0,98,-99.99,,,0.04,Acu-Link.com,2013-02-11 09:32:00,
2013-02-11 04:47:00,48.2,47.7,29.92,WNW,292,2.7,-999.0,98,-99.99,,,0.04,Acu-Link.com,2013-02-11 09:47:00,
2013-02-11 05:02:00,47.5,47.0,29.94,SSW,202,2.2,-999.0,98,-99.99,,,0.04,Acu-Link.com,2013-02-11 10:02:00,
2013-02-11 05:17:00,47.5,47.0,29.95,SSW,202,0.0,-999.0,98,-99.99,,,0.05,Acu-Link.com,2013-02-11 10:17:00,
2013-02-11 05:32:00,47.7,47.2,29.94,NW,315,2.2,-999.0,98,-99.99,,,0.11,Acu-Link.com,2013-02-11 10:32:00,
2013-02-11 05:47:00,47.7,47.2,29.94,WNW,292,2.2,-999.0,98,-99.99,,,0.12,Acu-Link.com,2013-02-11 10:47:00,
2013-02-11 06:02:00,47.7,47.2,29.94,NW,315,2.2,-999.0,98,-99.99,,,0.13,Acu-Link.com,2013-02-11 11:02:00,
2013-02-11 06:18:00,48.0,47.5,29.93,West,270,2.7,-999.0,98,-99.99,,,0.14,Acu-Link.com,2013-02-11 11:18:00,
2013-02-11 06:33:00,48.4,47.9,29.89,ESE,112,6.8,-999.0,98,-99.99,,,0.17,Acu-Link.com,2013-02-11 11:33:00,
2013-02-11 06:48:00,48.4,47.9,29.90,NNW,337,0.0,-999.0,98,-99.99,,,0.17,Acu-Link.com,2013-02-11 11:48:00,
2013-02-11 07:04:00,48.7,48.2,29.90,ESE,112,2.2,-999.0,98,-99.99,,,0.17,Acu-Link.com,2013-02-11 12:04:00,
2013-02-11 07:19:00,48.7,48.2,29.91,NW,315,3.7,-999.0,98,-99.99,,,0.17,Acu-Link.com,2013-02-11 12:19:00,
2013-02-11 07:34:00,49.5,49.0,29.93,West,270,2.2,-999.0,98,-99.99,,,0.17,Acu-Link.com,2013-02-11 12:34:00,
2013-02-11 07:49:00,50.4,49.9,29.92,NNW,337,3.2,-999.0,98,-99.99,,,0.17,Acu-Link.com,2013-02-11 12:49:00,
2013-02-11 08:05:00,50.5,50.0,29.93,NW,315,2.7,-999.0,98,-99.99,,,0.17,Acu-Link.com,2013-02-11 13:05:00,
2013-02-11 08:20:00,50.9,50.4,29.92,WNW,292,2.7,-999.0,98,-99.99,,,0.17,Acu-Link.com,2013-02-11 13:20:00,
2013-02-11 08:35:00,51.1,50.6,29.93,West,270,3.7,-999.0,98,-99.99,,,0.17,Acu-Link.com,2013-02-11 13:35:00,
2013-02-11 08:50:00,51.3,50.8,29.92,West,270,2.2,-999.0,98,-99.99,,,0.17,Acu-Link.com,2013-02-11 13:50:00,
2013-02-11 09:06:00,51.8,51.3,29.91,WSW,247,3.7,-999.0,98,-99.99,,,0.17,Acu-Link.com,2013-02-11 14:06:00,
2013-02-11 09:21:00,52.3,51.8,29.92,NW,315,7.8,-999.0,98,-99.99,,,0.17,Acu-Link.com,2013-02-11 14:21:00,
2013-02-11 09:36:00,52.5,52.0,29.90,SW,225,4.7,-999.0,98,-99.99,,,0.17,Acu-Link.com,2013-02-11 14:36:00,
2013-02-11 09:52:00,52.9,52.4,29.89,NW,315,0.0,-999.0,98,-99.99,,,0.17,Acu-Link.com,2013-02-11 14:52:00,
2013-02-11 10:07:00,53.4,52.8,29.89,WSW,247,3.7,-999.0,98,-99.99,,,0.17,Acu-Link.com,2013-02-11 15:07:00,
2013-02-11 10:22:00,54.9,54.3,29.90,West,270,4.7,-999.0,98,-99.99,,,0.18,Acu-Link.com,2013-02-11 15:22:00,
2013-02-11 10:37:00,54.5,53.9,29.89,West,270,2.2,-999.0,98,-99.99,,,0.18,Acu-Link.com,2013-02-11 15:37:00,
2013-02-11 10:52:00,55.4,54.8,29.89,WNW,292,4.2,-999.0,98,-99.99,,,0.18,Acu-Link.com,2013-02-11 15:52:00,
2013-02-11 11:08:00,56.3,55.7,29.89,East,90,2.7,-999.0,98,-99.99,,,0.18,Acu-Link.com,2013-02-11 16:08:00,
2013-02-11 11:23:00,55.6,55.0,29.89,NE,45,1.7,-999.0,98,-99.99,,,0.18,Acu-Link.com,2013-02-11 16:23:00,
2013-02-11 11:38:00,55.6,55.0,29.91,West,270,2.2,-999.0,98,-99.99,,,0.18,Acu-Link.com,2013-02-11 16:38:00,
2013-02-11 11:53:00,55.6,55.0,29.91,SW,225,1.1,-999.0,98,-99.99,,,0.18,Acu-Link.com,2013-02-11 16:53:00,
2013-02-11 12:08:00,56.3,55.7,29.88,ESE,112,3.2,-999.0,98,-99.99,,,0.18,Acu-Link.com,2013-02-11 17:08:00,
2013-02-11 12:23:00,58.3,57.7,29.87,SW,225,1.7,-999.0,98,-99.99,,,0.18,Acu-Link.com,2013-02-11 17:23:00,
2013-02-11 12:39:00,58.1,57.5,29.87,NW,315,2.7,-999.0,98,-99.99,,,0.18,Acu-Link.com,2013-02-11 17:39:00,
2013-02-11 12:54:00,57.9,57.3,29.86,South,180,2.2,-999.0,98,-99.99,,,0.18,Acu-Link.com,2013-02-11 17:54:00,
2013-02-11 13:09:00,58.5,57.9,29.87,WSW,247,1.1,-999.0,98,-99.99,,,0.18,Acu-Link.com,2013-02-11 18:09:00,
2013-02-11 13:24:00,57.6,57.0,29.87,South,180,1.7,-999.0,98,-99.99,,,0.18,Acu-Link.com,2013-02-11 18:24:00,
2013-02-11 13:40:00,57.4,56.8,29.87,West,270,4.7,-999.0,98,-99.99,,,0.18,Acu-Link.com,2013-02-11 18:40:00,
2013-02-11 13:55:00,58.1,57.5,29.87,NNW,337,1.7,-999.0,98,-99.99,,,0.18,Acu-Link.com,2013-02-11 18:55:00,
2013-02-11 14:10:00,57.9,57.3,29.86,NW,315,3.7,-999.0,98,-99.99,,,0.18,Acu-Link.com,2013-02-11 19:10:00,
2013-02-11 14:26:00,57.7,57.1,29.86,WNW,292,4.2,-999.0,98,-99.99,,,0.18,Acu-Link.com,2013-02-11 19:26:00,
2013-02-11 14:41:00,57.2,56.6,29.86,West,270,0.0,-999.0,98,-99.99,,,0.18,Acu-Link.com,2013-02-11 19:41:00,
2013-02-11 14:56:00,57.6,57.0,29.84,NW,315,2.7,-999.0,98,-99.99,,,0.18,Acu-Link.com,2013-02-11 19:56:00,
2013-02-11 15:12:00,57.9,57.3,29.85,North,0,0.0,-999.0,98,-99.99,,,0.18,Acu-Link.com,2013-02-11 20:12:00,
2013-02-11 15:27:00,57.4,56.8,29.85,ESE,112,1.7,-999.0,98,-99.99,,,0.18,Acu-Link.com,2013-02-11 20:27:00,
2013-02-11 15:42:00,57.0,56.4,29.85,NW,315,1.1,-999.0,98,-99.99,,,0.18,Acu-Link.com,2013-02-11 20:42:00,
2013-02-11 15:57:00,56.3,55.7,29.84,North,0,2.2,-999.0,98,-99.99,,,0.18,Acu-Link.com,2013-02-11 20:57:00,
2013-02-11 16:13:00,56.1,55.5,29.83,NE,45,1.1,-999.0,98,-99.99,,,0.18,Acu-Link.com,2013-02-11 21:13:00,
2013-02-11 16:28:00,56.3,55.7,29.84,NW,315,2.7,-999.0,98,-99.99,,,0.18,Acu-Link.com,2013-02-11 21:28:00,
2013-02-11 16:43:00,55.4,54.8,29.85,West,270,2.2,-999.0,98,-99.99,,,0.18,Acu-Link.com,2013-02-11 21:43:00,
2013-02-11 16:59:00,54.3,53.7,29.87,NW,315,3.7,-999.0,98,-99.99,,,0.18,Acu-Link.com,2013-02-11 21:59:00,
2013-02-11 17:14:00,53.2,52.6,29.86,NW,315,3.2,-999.0,98,-99.99,,,0.18,Acu-Link.com,2013-02-11 22:14:00,
2013-02-11 17:29:00,51.8,42.7,29.86,West,270,3.7,-999.0,71,-99.99,,,0.18,Acu-Link.com,2013-02-11 22:29:00,
2013-02-11 17:44:00,51.1,40.1,29.86,NNW,337,5.3,-999.0,66,-99.99,,,0.18,Acu-Link.com,2013-02-11 22:44:00,
2013-02-11 18:00:00,50.4,39.5,29.85,NNW,337,4.2,-999.0,66,-99.99,,,0.18,Acu-Link.com,2013-02-11 23:00:00,
2013-02-11 18:15:00,50.0,39.1,29.87,WNW,292,3.2,-999.0,66,-99.99,,,0.18,Acu-Link.com,2013-02-11 23:15:00,
2013-02-11 18:30:00,49.6,38.3,29.87,NW,315,3.2,-999.0,65,-99.99,,,0.18,Acu-Link.com,2013-02-11 23:30:00,
2013-02-11 18:46:00,49.5,36.2,29.87,NW,315,3.2,-999.0,60,-99.99,,,0.18,Acu-Link.com,2013-02-11 23:46:00,
2013-02-11 19:01:00,49.3,36.0,29.89,WNW,292,2.7,-999.0,60,-99.99,,,0.18,Acu-Link.com,2013-02-12 00:01:00,
2013-02-11 19:16:00,48.6,36.6,29.90,NW,315,3.7,-999.0,63,-99.99,,,0.18,Acu-Link.com,2013-02-12 00:16:00,
2013-02-11 19:32:00,48.0,35.2,29.89,WNW,292,3.2,-999.0,61,-99.99,,,0.18,Acu-Link.com,2013-02-12 00:32:00,
2013-02-11 19:47:00,47.8,34.6,29.88,NW,315,2.7,-999.0,60,-99.99,,,0.18,Acu-Link.com,2013-02-12 00:47:00,
2013-02-11 20:02:00,48.0,34.4,29.88,NNW,337,3.7,-999.0,59,-99.99,,,0.18,Acu-Link.com,2013-02-12 01:02:00,
2013-02-11 20:17:00,47.8,34.6,29.89,NW,315,2.2,-999.0,60,-99.99,,,0.18,Acu-Link.com,2013-02-12 01:17:00,
2013-02-11 20:33:00,47.1,35.2,29.90,NW,315,2.7,-999.0,63,-99.99,,,0.18,Acu-Link.com,2013-02-12 01:33:00,
2013-02-11 20:48:00,46.2,35.1,29.89,West,270,1.1,-999.0,65,-99.99,,,0.18,Acu-Link.com,2013-02-12 01:48:00,
2013-02-11 21:03:00,45.0,35.1,29.89,West,270,0.0,-999.0,68,-99.99,,,0.18,Acu-Link.com,2013-02-12 02:03:00,
2013-02-11 21:18:00,44.4,36.6,29.89,West,270,1.7,-999.0,74,-99.99,,,0.18,Acu-Link.com,2013-02-12 02:18:00,
2013-02-11 21:33:00,44.4,37.3,29.90,ESE,112,0.0,-999.0,76,-99.99,,,0.18,Acu-Link.com,2013-02-12 02:33:00,
2013-02-11 21:49:00,44.4,37.0,29.91,WNW,292,2.2,-999.0,75,-99.99,,,0.18,Acu-Link.com,2013-02-12 02:49:00,
2013-02-11 22:04:00,44.8,38.0,29.90,WNW,292,2.7,-999.0,77,-99.99,,,0.18,Acu-Link.com,2013-02-12 03:04:00,
2013-02-11 22:19:00,44.4,38.9,29.88,NNW,337,2.7,-999.0,81,-99.99,,,0.18,Acu-Link.com,2013-02-12 03:19:00,
2013-02-11 22:35:00,44.6,37.5,29.87,NNW,337,6.8,-999.0,76,-99.99,,,0.18,Acu-Link.com,2013-02-12 03:35:00,
2013-02-11 22:50:00,45.1,36.6,29.88,NW,315,8.9,-999.0,72,-99.99,,,0.18,Acu-Link.com,2013-02-12 03:50:00,
2013-02-11 23:05:00,45.0,36.5,29.86,NNW,337,7.8,-999.0,72,-99.99,,,0.18,Acu-Link.com,2013-02-12 04:05:00,
2013-02-11 23:21:00,45.0,36.5,29.86,WNW,292,6.3,-999.0,72,-99.99,,,0.18,Acu-Link.com,2013-02-12 04:21:00,
2013-02-11 23:36:00,44.6,35.8,29.86,NNE,22,4.2,-999.0,71,-99.99,,,0.18,Acu-Link.com,2013-02-12 04:36:00,
2013-02-11 23:51:00,44.4,34.9,29.88,NW,315,5.3,-999.0,69,-99.99,,,0.18,Acu-Link.com,2013-02-12 04:51:00,